sensor_id;sensor_type;location;lat;lon;timestamp;pressure;altitude;pressure_sealevel;temperature;humidity
3844;BME280;1937;51.444;6.484;2023-07-16T00:00:26;69136.25;;;18.67;100.00
3844;BME280;1937;51.444;6.484;2023-07-16T00:02:53;69160.78;;;18.75;100.00
3844;BME280;1937;51.444;6.484;2023-07-16T00:05:21;69161.16;;;18.77;100.00
3844;BME280;1937;51.444;6.484;2023-07-16T00:07:48;69174.09;;;18.73;100.00
3844;BME280;1937;51.444;6.484;2023-07-16T00:10:14;69210.94;;;18.75;100.00
3844;BME280;1937;51.444;6.484;2023-07-16T00:12:41;69202.06;;;18.68;100.00
3844;BME280;1937;51.444;6.484;2023-07-16T00:15:08;69249.50;;;18.86;100.00
3844;BME280;1937;51.444;6.484;2023-07-16T00:17:35;69331.34;;;18.89;100.00
3844;BME280;1937;51.444;6.484;2023-07-16T00:20:02;69309.28;;;18.99;100.00
3844;BME280;1937;51.444;6.484;2023-07-16T00:22:30;69352.59;;;19.03;100.00
3844;BME280;1937;51.444;6.484;2023-07-16T00:24:57;69349.88;;;18.98;100.00
3844;BME280;1937;51.444;6.484;2023-07-16T00:27:23;69386.06;;;19.07;100.00
3844;BME280;1937;51.444;6.484;2023-07-16T00:29:50;69388.22;;;19.11;100.00
3844;BME280;1937;51.444;6.484;2023-07-16T00:32:16;69372.91;;;19.02;100.00
3844;BME280;1937;51.444;6.484;2023-07-16T00:34:43;69377.66;;;19.06;100.00
3844;BME280;1937;51.444;6.484;2023-07-16T00:37:10;69432.00;;;19.10;100.00
3844;BME280;1937;51.444;6.484;2023-07-16T00:39:37;69427.16;;;19.13;100.00
3844;BME280;1937;51.444;6.484;2023-07-16T00:42:04;69427.75;;;19.13;100.00
3844;BME280;1937;51.444;6.484;2023-07-16T00:44:31;69420.25;;;19.05;100.00
3844;BME280;1937;51.444;6.484;2023-07-16T00:46:58;69393.53;;;18.93;100.00
3844;BME280;1937;51.444;6.484;2023-07-16T00:49:24;69422.63;;;19.07;100.00
3844;BME280;1937;51.444;6.484;2023-07-16T00:51:52;69374.53;;;18.88;100.00
3844;BME280;1937;51.444;6.484;2023-07-16T00:54:19;69368.34;;;18.85;100.00
3844;BME280;1937;51.444;6.484;2023-07-16T00:56:47;69394.19;;;18.76;100.00
3844;BME280;1937;51.444;6.484;2023-07-16T00:59:14;69355.88;;;18.74;100.00
3844;BME280;1937;51.444;6.484;2023-07-16T01:01:41;69356.56;;;18.68;100.00
3844;BME280;1937;51.444;6.484;2023-07-16T01:04:08;69343.75;;;18.55;100.00
3844;BME280;1937;51.444;6.484;2023-07-16T01:06:36;69369.53;;;18.75;100.00
3844;BME280;1937;51.444;6.484;2023-07-16T01:09:07;69403.19;;;18.66;100.00
3844;BME280;1937;51.444;6.484;2023-07-16T01:11:35;69374.50;;;18.66;100.00
3844;BME280;1937;51.444;6.484;2023-07-16T01:14:05;69327.13;;;18.52;100.00
3844;BME280;1937;51.444;6.484;2023-07-16T01:16:33;69324.28;;;18.43;100.00
3844;BME280;1937;51.444;6.484;2023-07-16T01:18:59;69376.69;;;18.52;100.00
3844;BME280;1937;51.444;6.484;2023-07-16T01:21:31;69349.28;;;18.47;100.00
3844;BME280;1937;51.444;6.484;2023-07-16T01:24:11;69293.44;;;18.39;100.00
3844;BME280;1937;51.444;6.484;2023-07-16T01:26:53;69305.97;;;18.32;100.00
3844;BME280;1937;51.444;6.484;2023-07-16T01:29:33;69286.28;;;18.22;100.00
3844;BME280;1937;51.444;6.484;2023-07-16T01:32:03;69215.53;;;18.08;100.00
3844;BME280;1937;51.444;6.484;2023-07-16T01:34:33;69281.88;;;18.20;100.00
3844;BME280;1937;51.444;6.484;2023-07-16T01:37:01;69216.09;;;17.97;100.00
3844;BME280;1937;51.444;6.484;2023-07-16T01:39:28;69230.31;;;17.98;100.00
3844;BME280;1937;51.444;6.484;2023-07-16T01:41:56;69248.22;;;17.96;100.00
3844;BME280;1937;51.444;6.484;2023-07-16T01:44:22;69273.19;;;17.99;100.00
3844;BME280;1937;51.444;6.484;2023-07-16T01:47:03;69274.88;;;17.96;100.00
3844;BME280;1937;51.444;6.484;2023-07-16T01:49:31;69225.09;;;17.98;100.00
3844;BME280;1937;51.444;6.484;2023-07-16T01:51:57;69282.72;;;18.08;100.00
3844;BME280;1937;51.444;6.484;2023-07-16T01:54:24;69271.41;;;17.98;100.00
3844;BME280;1937;51.444;6.484;2023-07-16T01:56:50;69252.31;;;17.88;100.00
3844;BME280;1937;51.444;6.484;2023-07-16T01:59:17;69250.28;;;17.78;100.00
3844;BME280;1937;51.444;6.484;2023-07-16T02:01:44;69259.44;;;17.83;100.00
3844;BME280;1937;51.444;6.484;2023-07-16T02:04:11;69285.09;;;17.81;100.00
3844;BME280;1937;51.444;6.484;2023-07-16T02:06:38;69244.13;;;17.75;100.00
3844;BME280;1937;51.444;6.484;2023-07-16T02:09:05;69265.81;;;17.84;100.00
3844;BME280;1937;51.444;6.484;2023-07-16T02:11:32;69285.13;;;17.92;100.00
3844;BME280;1937;51.444;6.484;2023-07-16T02:13:58;69253.38;;;17.85;100.00
3844;BME280;1937;51.444;6.484;2023-07-16T02:16:25;69268.19;;;17.86;100.00
3844;BME280;1937;51.444;6.484;2023-07-16T02:18:51;69243.66;;;17.79;100.00
3844;BME280;1937;51.444;6.484;2023-07-16T02:21:19;69290.09;;;17.83;100.00
3844;BME280;1937;51.444;6.484;2023-07-16T02:23:46;69264.97;;;17.86;100.00
3844;BME280;1937;51.444;6.484;2023-07-16T02:26:12;69259.56;;;17.88;100.00
3844;BME280;1937;51.444;6.484;2023-07-16T02:28:39;69266.88;;;17.81;100.00
3844;BME280;1937;51.444;6.484;2023-07-16T02:31:05;69256.44;;;17.81;100.00
3844;BME280;1937;51.444;6.484;2023-07-16T02:33:32;69234.75;;;17.71;100.00
3844;BME280;1937;51.444;6.484;2023-07-16T02:35:58;69276.56;;;17.76;100.00
3844;BME280;1937;51.444;6.484;2023-07-16T02:38:26;69262.47;;;17.79;100.00
3844;BME280;1937;51.444;6.484;2023-07-16T02:40:53;69299.81;;;17.89;100.00
3844;BME280;1937;51.444;6.484;2023-07-16T02:43:20;69244.84;;;17.80;100.00
3844;BME280;1937;51.444;6.484;2023-07-16T02:45:46;69262.16;;;17.88;100.00
3844;BME280;1937;51.444;6.484;2023-07-16T02:48:13;69241.78;;;17.84;100.00
3844;BME280;1937;51.444;6.484;2023-07-16T02:50:39;69246.28;;;17.79;100.00
3844;BME280;1937;51.444;6.484;2023-07-16T02:53:07;69252.06;;;17.79;100.00
3844;BME280;1937;51.444;6.484;2023-07-16T02:55:35;69219.31;;;17.58;100.00
3844;BME280;1937;51.444;6.484;2023-07-16T02:58:02;69329.75;;;17.54;100.00
3844;BME280;1937;51.444;6.484;2023-07-16T03:00:30;69255.63;;;17.53;100.00
3844;BME280;1937;51.444;6.484;2023-07-16T03:02:56;69237.94;;;17.61;100.00
3844;BME280;1937;51.444;6.484;2023-07-16T03:05:24;69176.78;;;17.48;100.00
3844;BME280;1937;51.444;6.484;2023-07-16T03:07:51;69207.56;;;17.52;100.00
3844;BME280;1937;51.444;6.484;2023-07-16T03:10:17;69174.50;;;17.40;100.00
3844;BME280;1937;51.444;6.484;2023-07-16T03:12:45;69181.97;;;17.37;100.00
3844;BME280;1937;51.444;6.484;2023-07-16T03:15:12;69132.00;;;17.30;100.00
3844;BME280;1937;51.444;6.484;2023-07-16T03:17:39;69181.00;;;17.34;100.00
3844;BME280;1937;51.444;6.484;2023-07-16T03:20:07;69138.97;;;17.20;100.00
3844;BME280;1937;51.444;6.484;2023-07-16T03:22:34;69150.25;;;17.30;100.00
3844;BME280;1937;51.444;6.484;2023-07-16T03:25:00;69134.03;;;17.30;100.00
3844;BME280;1937;51.444;6.484;2023-07-16T03:27:27;69155.44;;;17.30;100.00
3844;BME280;1937;51.444;6.484;2023-07-16T03:29:55;69156.63;;;17.31;100.00
3844;BME280;1937;51.444;6.484;2023-07-16T03:32:22;69073.06;;;17.11;100.00
3844;BME280;1937;51.444;6.484;2023-07-16T03:34:48;69068.66;;;17.09;100.00
3844;BME280;1937;51.444;6.484;2023-07-16T03:37:15;69088.69;;;17.22;100.00
3844;BME280;1937;51.444;6.484;2023-07-16T03:39:42;69042.31;;;17.07;100.00
3844;BME280;1937;51.444;6.484;2023-07-16T03:42:08;69047.63;;;17.11;100.00
3844;BME280;1937;51.444;6.484;2023-07-16T03:44:35;69007.28;;;17.06;100.00
3844;BME280;1937;51.444;6.484;2023-07-16T03:47:03;68985.16;;;17.00;100.00
3844;BME280;1937;51.444;6.484;2023-07-16T03:49:30;68969.94;;;17.14;100.00
3844;BME280;1937;51.444;6.484;2023-07-16T03:51:56;69041.13;;;17.17;100.00
3844;BME280;1937;51.444;6.484;2023-07-16T03:54:23;68901.78;;;17.07;100.00
3844;BME280;1937;51.444;6.484;2023-07-16T03:56:49;68927.44;;;17.15;99.90
3844;BME280;1937;51.444;6.484;2023-07-16T03:59:16;68914.19;;;17.29;99.25
3844;BME280;1937;51.444;6.484;2023-07-16T04:01:42;68819.00;;;17.03;98.70
3844;BME280;1937;51.444;6.484;2023-07-16T04:04:10;68854.97;;;17.07;98.15
3844;BME280;1937;51.444;6.484;2023-07-16T04:06:37;68871.88;;;17.12;98.82
3844;BME280;1937;51.444;6.484;2023-07-16T04:09:03;68883.81;;;17.16;98.47
3844;BME280;1937;51.444;6.484;2023-07-16T04:11:30;68834.47;;;17.09;97.02
3844;BME280;1937;51.444;6.484;2023-07-16T04:13:57;68820.28;;;17.08;96.92
3844;BME280;1937;51.444;6.484;2023-07-16T04:16:23;68764.34;;;17.14;93.56
3844;BME280;1937;51.444;6.484;2023-07-16T04:18:50;68745.22;;;17.00;93.62
3844;BME280;1937;51.444;6.484;2023-07-16T04:21:18;68745.38;;;17.20;92.04
3844;BME280;1937;51.444;6.484;2023-07-16T04:23:44;68724.91;;;17.23;92.69
3844;BME280;1937;51.444;6.484;2023-07-16T04:26:11;68703.31;;;17.13;91.62
3844;BME280;1937;51.444;6.484;2023-07-16T04:28:38;68668.16;;;17.18;91.89
3844;BME280;1937;51.444;6.484;2023-07-16T04:31:05;68654.88;;;17.20;91.62
3844;BME280;1937;51.444;6.484;2023-07-16T04:33:32;68714.28;;;17.25;90.59
3844;BME280;1937;51.444;6.484;2023-07-16T04:35:58;68736.09;;;17.32;91.20
3844;BME280;1937;51.444;6.484;2023-07-16T04:38:26;68727.22;;;17.36;91.40
3844;BME280;1937;51.444;6.484;2023-07-16T04:40:56;68710.88;;;17.42;91.14
3844;BME280;1937;51.444;6.484;2023-07-16T04:43:22;68750.53;;;17.42;90.77
3844;BME280;1937;51.444;6.484;2023-07-16T04:45:50;68702.97;;;17.37;90.68
3844;BME280;1937;51.444;6.484;2023-07-16T04:48:17;68747.41;;;17.46;90.44
3844;BME280;1937;51.444;6.484;2023-07-16T04:50:43;68692.34;;;17.55;88.70
3844;BME280;1937;51.444;6.484;2023-07-16T04:53:10;68692.50;;;17.48;88.01
3844;BME280;1937;51.444;6.484;2023-07-16T04:55:38;68693.50;;;17.56;88.17
3844;BME280;1937;51.444;6.484;2023-07-16T04:58:05;68651.38;;;17.60;85.52
3844;BME280;1937;51.444;6.484;2023-07-16T05:00:32;68653.56;;;17.69;85.40
3844;BME280;1937;51.444;6.484;2023-07-16T05:02:59;68639.28;;;17.63;86.21
3844;BME280;1937;51.444;6.484;2023-07-16T05:05:25;68640.13;;;17.62;85.59
3844;BME280;1937;51.444;6.484;2023-07-16T05:07:52;68656.75;;;17.69;86.39
3844;BME280;1937;51.444;6.484;2023-07-16T05:10:18;68715.25;;;17.86;85.88
3844;BME280;1937;51.444;6.484;2023-07-16T05:12:47;68722.59;;;17.90;85.64
3844;BME280;1937;51.444;6.484;2023-07-16T05:15:13;68754.72;;;18.04;85.53
3844;BME280;1937;51.444;6.484;2023-07-16T05:17:40;68726.41;;;18.07;85.35
3844;BME280;1937;51.444;6.484;2023-07-16T05:20:07;68703.19;;;18.05;84.21
3844;BME280;1937;51.444;6.484;2023-07-16T05:22:35;68728.75;;;18.09;85.21
3844;BME280;1937;51.444;6.484;2023-07-16T05:25:06;68792.03;;;18.02;84.56
3844;BME280;1937;51.444;6.484;2023-07-16T05:27:34;68733.38;;;18.08;85.40
3844;BME280;1937;51.444;6.484;2023-07-16T05:30:03;68733.31;;;18.19;84.02
3844;BME280;1937;51.444;6.484;2023-07-16T05:32:29;68730.44;;;18.21;83.11
3844;BME280;1937;51.444;6.484;2023-07-16T05:34:56;68697.41;;;18.20;82.65
3844;BME280;1937;51.444;6.484;2023-07-16T05:37:22;68691.75;;;18.13;83.93
3844;BME280;1937;51.444;6.484;2023-07-16T05:39:49;68683.03;;;18.25;81.43
3844;BME280;1937;51.444;6.484;2023-07-16T05:42:16;68740.13;;;18.43;80.98
3844;BME280;1937;51.444;6.484;2023-07-16T05:44:44;68714.66;;;18.44;80.98
3844;BME280;1937;51.444;6.484;2023-07-16T05:47:17;68714.97;;;18.46;80.10
3844;BME280;1937;51.444;6.484;2023-07-16T05:49:44;68711.19;;;18.45;80.21
3844;BME280;1937;51.444;6.484;2023-07-16T05:52:10;68658.53;;;18.33;79.31
3844;BME280;1937;51.444;6.484;2023-07-16T05:54:37;68645.50;;;18.33;79.13
3844;BME280;1937;51.444;6.484;2023-07-16T05:57:04;68689.25;;;18.49;79.40
3844;BME280;1937;51.444;6.484;2023-07-16T05:59:31;68697.66;;;18.65;78.23
3844;BME280;1937;51.444;6.484;2023-07-16T06:01:59;68642.63;;;18.51;77.70
3844;BME280;1937;51.444;6.484;2023-07-16T06:04:27;68662.91;;;18.51;78.74
3844;BME280;1937;51.444;6.484;2023-07-16T06:06:54;68672.59;;;18.57;77.69
3844;BME280;1937;51.444;6.484;2023-07-16T06:09:21;68671.41;;;18.56;77.29
3844;BME280;1937;51.444;6.484;2023-07-16T06:11:47;68704.97;;;18.69;77.52
3844;BME280;1937;51.444;6.484;2023-07-16T06:14:14;68678.13;;;18.75;75.77
3844;BME280;1937;51.444;6.484;2023-07-16T06:16:41;68754.53;;;18.85;77.18
3844;BME280;1937;51.444;6.484;2023-07-16T06:19:08;68730.97;;;18.96;75.86
3844;BME280;1937;51.444;6.484;2023-07-16T06:21:36;68778.59;;;19.16;75.67
3844;BME280;1937;51.444;6.484;2023-07-16T06:24:02;68818.50;;;19.42;73.86
3844;BME280;1937;51.444;6.484;2023-07-16T06:26:29;68771.81;;;19.44;72.90
3844;BME280;1937;51.444;6.484;2023-07-16T06:28:56;68832.13;;;19.58;71.83
3844;BME280;1937;51.444;6.484;2023-07-16T06:31:22;68745.69;;;19.44;71.44
3844;BME280;1937;51.444;6.484;2023-07-16T06:33:49;68851.41;;;19.81;70.98
3844;BME280;1937;51.444;6.484;2023-07-16T06:36:16;68841.38;;;19.88;70.49
3844;BME280;1937;51.444;6.484;2023-07-16T06:38:44;68868.81;;;19.98;70.12
3844;BME280;1937;51.444;6.484;2023-07-16T06:41:10;68766.56;;;19.60;71.59
3844;BME280;1937;51.444;6.484;2023-07-16T06:43:37;68750.91;;;19.60;70.98
3844;BME280;1937;51.444;6.484;2023-07-16T06:46:03;68755.84;;;19.62;70.66
3844;BME280;1937;51.444;6.484;2023-07-16T06:48:30;68717.06;;;19.49;70.53
3844;BME280;1937;51.444;6.484;2023-07-16T06:50:57;68817.66;;;19.95;69.66
3844;BME280;1937;51.444;6.484;2023-07-16T06:53:23;68820.69;;;20.02;67.82
3844;BME280;1937;51.444;6.484;2023-07-16T06:55:51;68821.28;;;20.02;68.24
3844;BME280;1937;51.444;6.484;2023-07-16T06:58:18;68816.78;;;20.12;67.36
3844;BME280;1937;51.444;6.484;2023-07-16T07:00:44;68778.19;;;19.97;66.76
3844;BME280;1937;51.444;6.484;2023-07-16T07:03:11;68819.69;;;20.15;66.69
3844;BME280;1937;51.444;6.484;2023-07-16T07:05:40;68865.81;;;20.27;67.90
3844;BME280;1937;51.444;6.484;2023-07-16T07:08:07;68940.84;;;20.65;66.58
3844;BME280;1937;51.444;6.484;2023-07-16T07:10:33;68979.38;;;20.91;66.12
3844;BME280;1937;51.444;6.484;2023-07-16T07:13:04;68921.75;;;20.71;63.96
3844;BME280;1937;51.444;6.484;2023-07-16T07:15:31;68911.28;;;20.71;64.51
3844;BME280;1937;51.444;6.484;2023-07-16T07:17:57;68872.88;;;20.69;64.96
3844;BME280;1937;51.444;6.484;2023-07-16T07:20:24;68882.56;;;20.75;65.06
3844;BME280;1937;51.444;6.484;2023-07-16T07:22:50;68939.72;;;20.84;64.73
3844;BME280;1937;51.444;6.484;2023-07-16T07:25:17;68915.03;;;20.88;64.19
3844;BME280;1937;51.444;6.484;2023-07-16T07:27:44;69007.47;;;21.38;63.60
3844;BME280;1937;51.444;6.484;2023-07-16T07:30:12;69105.97;;;21.61;64.27
3844;BME280;1937;51.444;6.484;2023-07-16T07:32:38;69144.53;;;21.68;62.67
3844;BME280;1937;51.444;6.484;2023-07-16T07:35:05;69150.31;;;21.84;62.65
3844;BME280;1937;51.444;6.484;2023-07-16T07:37:32;69077.16;;;21.61;62.79
3844;BME280;1937;51.444;6.484;2023-07-16T07:39:59;69175.16;;;22.05;60.58
3844;BME280;1937;51.444;6.484;2023-07-16T07:42:26;69118.88;;;21.84;61.60
3844;BME280;1937;51.444;6.484;2023-07-16T07:44:53;69131.25;;;21.94;61.19
3844;BME280;1937;51.444;6.484;2023-07-16T07:47:21;69212.72;;;22.19;61.18
3844;BME280;1937;51.444;6.484;2023-07-16T07:49:48;69179.97;;;22.14;60.83
3844;BME280;1937;51.444;6.484;2023-07-16T07:52:14;69115.13;;;21.87;61.18
3844;BME280;1937;51.444;6.484;2023-07-16T07:54:41;69080.81;;;21.74;61.06
3844;BME280;1937;51.444;6.484;2023-07-16T07:57:08;69160.34;;;22.08;60.76
3844;BME280;1937;51.444;6.484;2023-07-16T07:59:34;69204.72;;;22.30;59.55
3844;BME280;1937;51.444;6.484;2023-07-16T08:02:01;69294.72;;;22.60;60.47
3844;BME280;1937;51.444;6.484;2023-07-16T08:04:29;69364.13;;;23.08;57.78
3844;BME280;1937;51.444;6.484;2023-07-16T08:06:57;69379.63;;;23.10;57.46
3844;BME280;1937;51.444;6.484;2023-07-16T08:09:25;69401.28;;;23.31;57.19
3844;BME280;1937;51.444;6.484;2023-07-16T08:11:52;69454.34;;;23.27;57.47
3844;BME280;1937;51.444;6.484;2023-07-16T08:14:19;69514.78;;;23.74;56.38
3844;BME280;1937;51.444;6.484;2023-07-16T08:16:46;69535.03;;;23.80;56.15
3844;BME280;1937;51.444;6.484;2023-07-16T08:19:13;69542.69;;;23.82;56.30
3844;BME280;1937;51.444;6.484;2023-07-16T08:21:41;69535.41;;;23.67;57.46
3844;BME280;1937;51.444;6.484;2023-07-16T08:24:07;69508.34;;;23.73;55.21
3844;BME280;1937;51.444;6.484;2023-07-16T08:26:34;69414.06;;;23.44;54.76
3844;BME280;1937;51.444;6.484;2023-07-16T08:29:01;69331.34;;;23.03;56.95
3844;BME280;1937;51.444;6.484;2023-07-16T08:31:28;69394.91;;;23.35;56.14
3844;BME280;1937;51.444;6.484;2023-07-16T08:33:54;69429.41;;;23.53;56.40
3844;BME280;1937;51.444;6.484;2023-07-16T08:36:21;69397.69;;;23.44;55.60
3844;BME280;1937;51.444;6.484;2023-07-16T08:38:49;69486.28;;;23.65;55.36
3844;BME280;1937;51.444;6.484;2023-07-16T08:41:16;69431.38;;;23.68;55.55
3844;BME280;1937;51.444;6.484;2023-07-16T08:43:45;69542.47;;;24.04;53.30
3844;BME280;1937;51.444;6.484;2023-07-16T08:46:13;69551.91;;;24.08;54.04
3844;BME280;1937;51.444;6.484;2023-07-16T08:48:40;69610.81;;;24.31;53.69
3844;BME280;1937;51.444;6.484;2023-07-16T08:51:09;69719.25;;;24.59;51.81
3844;BME280;1937;51.444;6.484;2023-07-16T08:53:36;69750.34;;;24.78;51.02
3844;BME280;1937;51.444;6.484;2023-07-16T08:56:04;69747.94;;;24.76;51.79
3844;BME280;1937;51.444;6.484;2023-07-16T08:58:32;69837.03;;;25.12;52.54
3844;BME280;1937;51.444;6.484;2023-07-16T09:00:59;69834.38;;;25.27;50.47
3844;BME280;1937;51.444;6.484;2023-07-16T09:03:26;69692.97;;;24.79;50.55
3844;BME280;1937;51.444;6.484;2023-07-16T09:05:53;69747.84;;;24.87;51.62
3844;BME280;1937;51.444;6.484;2023-07-16T09:08:20;69794.63;;;25.14;51.29
3844;BME280;1937;51.444;6.484;2023-07-16T09:10:53;69835.34;;;25.15;50.55
3844;BME280;1937;51.444;6.484;2023-07-16T09:13:22;69654.22;;;24.57;51.19
3844;BME280;1937;51.444;6.484;2023-07-16T09:15:52;69800.56;;;25.19;51.67
3844;BME280;1937;51.444;6.484;2023-07-16T09:18:20;69753.56;;;24.95;50.50
3844;BME280;1937;51.444;6.484;2023-07-16T09:20:47;69788.31;;;25.06;51.48
3844;BME280;1937;51.444;6.484;2023-07-16T09:23:16;69712.41;;;24.86;51.36
3844;BME280;1937;51.444;6.484;2023-07-16T09:25:43;69701.72;;;24.77;51.82
3844;BME280;1937;51.444;6.484;2023-07-16T09:28:10;69758.97;;;25.04;52.87
3844;BME280;1937;51.444;6.484;2023-07-16T09:30:38;69905.44;;;25.50;50.43
3844;BME280;1937;51.444;6.484;2023-07-16T09:33:15;69847.28;;;25.45;50.25
3844;BME280;1937;51.444;6.484;2023-07-16T09:35:42;70043.63;;;26.00;49.12
3844;BME280;1937;51.444;6.484;2023-07-16T09:38:09;70196.63;;;26.49;49.52
3844;BME280;1937;51.444;6.484;2023-07-16T09:40:37;70158.78;;;26.51;49.53
3844;BME280;1937;51.444;6.484;2023-07-16T09:43:04;70324.06;;;27.03;48.71
3844;BME280;1937;51.444;6.484;2023-07-16T09:45:32;70091.75;;;26.16;47.98
3844;BME280;1937;51.444;6.484;2023-07-16T09:48:00;69873.50;;;25.52;49.60
3844;BME280;1937;51.444;6.484;2023-07-16T09:50:28;69699.00;;;24.88;50.37
3844;BME280;1937;51.444;6.484;2023-07-16T09:52:56;69523.13;;;24.37;52.39
3844;BME280;1937;51.444;6.484;2023-07-16T09:55:24;69714.38;;;24.97;51.97
3844;BME280;1937;51.444;6.484;2023-07-16T09:57:53;69619.66;;;24.55;51.88
3844;BME280;1937;51.444;6.484;2023-07-16T10:00:22;69675.19;;;24.84;51.76
3844;BME280;1937;51.444;6.484;2023-07-16T10:02:50;69601.53;;;24.73;51.14
3844;BME280;1937;51.444;6.484;2023-07-16T10:05:23;69520.69;;;24.31;52.72
3844;BME280;1937;51.444;6.484;2023-07-16T10:07:52;69575.63;;;24.44;52.87
3844;BME280;1937;51.444;6.484;2023-07-16T10:10:20;69456.56;;;24.07;53.24
3844;BME280;1937;51.444;6.484;2023-07-16T10:12:58;69581.84;;;24.52;52.12
3844;BME280;1937;51.444;6.484;2023-07-16T10:15:26;69546.91;;;24.42;53.03
3844;BME280;1937;51.444;6.484;2023-07-16T10:17:53;69561.44;;;24.36;53.30
3844;BME280;1937;51.444;6.484;2023-07-16T10:20:30;69727.69;;;25.06;52.27
3844;BME280;1937;51.444;6.484;2023-07-16T10:22:57;69728.03;;;25.09;51.41
3844;BME280;1937;51.444;6.484;2023-07-16T10:25:25;69648.94;;;24.73;52.35
3844;BME280;1937;51.444;6.484;2023-07-16T10:27:53;69821.81;;;25.28;52.06
3844;BME280;1937;51.444;6.484;2023-07-16T10:30:21;69793.13;;;25.31;50.93
3844;BME280;1937;51.444;6.484;2023-07-16T10:32:50;69847.56;;;25.43;51.14
3844;BME280;1937;51.444;6.484;2023-07-16T10:35:17;69940.59;;;25.80;50.11
3844;BME280;1937;51.444;6.484;2023-07-16T10:37:45;69922.13;;;25.80;49.45
3844;BME280;1937;51.444;6.484;2023-07-16T10:40:13;69880.56;;;25.53;50.25
3844;BME280;1937;51.444;6.484;2023-07-16T10:42:40;70001.53;;;26.09;49.25
3844;BME280;1937;51.444;6.484;2023-07-16T10:45:08;69867.31;;;25.64;49.42
3844;BME280;1937;51.444;6.484;2023-07-16T10:47:36;69916.84;;;25.80;49.72
3844;BME280;1937;51.444;6.484;2023-07-16T10:50:05;69670.03;;;24.73;50.78
3844;BME280;1937;51.444;6.484;2023-07-16T10:52:33;69633.56;;;24.64;51.77
3844;BME280;1937;51.444;6.484;2023-07-16T10:55:01;69485.47;;;24.23;51.90
3844;BME280;1937;51.444;6.484;2023-07-16T10:57:28;69491.25;;;24.19;52.42
3844;BME280;1937;51.444;6.484;2023-07-16T10:59:56;69666.00;;;24.78;51.14
3844;BME280;1937;51.444;6.484;2023-07-16T11:02:24;69649.25;;;24.75;50.75
3844;BME280;1937;51.444;6.484;2023-07-16T11:04:52;69651.97;;;24.80;51.16
3844;BME280;1937;51.444;6.484;2023-07-16T11:07:20;69549.59;;;24.46;51.96
3844;BME280;1937;51.444;6.484;2023-07-16T11:09:48;69529.00;;;24.38;52.46
3844;BME280;1937;51.444;6.484;2023-07-16T11:12:18;69428.94;;;23.97;52.05
3844;BME280;1937;51.444;6.484;2023-07-16T11:14:47;69407.34;;;24.01;53.03
3844;BME280;1937;51.444;6.484;2023-07-16T11:17:14;69628.97;;;24.69;51.29
3844;BME280;1937;51.444;6.484;2023-07-16T11:19:45;69662.75;;;24.94;50.97
3844;BME280;1937;51.444;6.484;2023-07-16T11:22:12;69794.47;;;25.41;51.48
3844;BME280;1937;51.444;6.484;2023-07-16T11:24:40;69988.75;;;26.00;51.62
3844;BME280;1937;51.444;6.484;2023-07-16T11:27:13;70154.88;;;26.61;47.88
3844;BME280;1937;51.444;6.484;2023-07-16T11:29:45;69930.53;;;25.91;48.28
3844;BME280;1937;51.444;6.484;2023-07-16T11:32:11;69870.78;;;25.63;48.82
3844;BME280;1937;51.444;6.484;2023-07-16T11:34:50;69955.56;;;25.81;50.78
3844;BME280;1937;51.444;6.484;2023-07-16T11:37:17;70074.22;;;26.35;48.35
3844;BME280;1937;51.444;6.484;2023-07-16T11:39:46;69997.53;;;26.30;48.25
3844;BME280;1937;51.444;6.484;2023-07-16T11:42:13;69993.19;;;26.18;48.36
3844;BME280;1937;51.444;6.484;2023-07-16T11:44:39;70031.34;;;26.34;47.84
3844;BME280;1937;51.444;6.484;2023-07-16T11:47:07;70007.16;;;26.12;48.68
3844;BME280;1937;51.444;6.484;2023-07-16T11:49:34;69983.50;;;25.85;49.40
3844;BME280;1937;51.444;6.484;2023-07-16T11:52:01;69879.38;;;25.84;48.70
3844;BME280;1937;51.444;6.484;2023-07-16T11:54:28;69763.34;;;25.37;49.97
3844;BME280;1937;51.444;6.484;2023-07-16T11:56:54;69758.84;;;25.31;50.54
3844;BME280;1937;51.444;6.484;2023-07-16T11:59:21;69743.56;;;25.26;50.75
3844;BME280;1937;51.444;6.484;2023-07-16T12:01:48;69799.31;;;25.49;49.82
3844;BME280;1937;51.444;6.484;2023-07-16T12:04:19;69879.03;;;25.81;49.23
3844;BME280;1937;51.444;6.484;2023-07-16T12:06:46;69915.53;;;25.90;49.39
3844;BME280;1937;51.444;6.484;2023-07-16T12:09:13;69883.44;;;25.83;48.32
3844;BME280;1937;51.444;6.484;2023-07-16T12:11:40;69904.28;;;26.00;48.55
3844;BME280;1937;51.444;6.484;2023-07-16T12:14:07;69856.47;;;25.82;48.18
3844;BME280;1937;51.444;6.484;2023-07-16T12:16:34;69859.72;;;25.67;47.79
3844;BME280;1937;51.444;6.484;2023-07-16T12:19:01;69721.41;;;25.35;50.05
3844;BME280;1937;51.444;6.484;2023-07-16T12:21:29;69798.66;;;25.44;48.91
3844;BME280;1937;51.444;6.484;2023-07-16T12:23:55;69796.84;;;25.43;48.94
3844;BME280;1937;51.444;6.484;2023-07-16T12:26:22;69706.72;;;25.31;49.34
3844;BME280;1937;51.444;6.484;2023-07-16T12:28:49;69738.34;;;25.31;48.96
3844;BME280;1937;51.444;6.484;2023-07-16T12:31:15;69905.91;;;25.93;48.54
3844;BME280;1937;51.444;6.484;2023-07-16T12:33:42;69979.66;;;26.15;47.50
3844;BME280;1937;51.444;6.484;2023-07-16T12:36:09;69964.03;;;26.29;48.21
3844;BME280;1937;51.444;6.484;2023-07-16T12:38:37;69963.19;;;26.30;47.32
3844;BME280;1937;51.444;6.484;2023-07-16T12:41:04;69939.44;;;26.15;46.37
3844;BME280;1937;51.444;6.484;2023-07-16T12:43:31;69914.59;;;25.87;47.57
3844;BME280;1937;51.444;6.484;2023-07-16T12:45:59;69788.94;;;25.58;47.37
3844;BME280;1937;51.444;6.484;2023-07-16T12:48:27;69750.22;;;25.41;49.00
3844;BME280;1937;51.444;6.484;2023-07-16T12:50:53;69715.03;;;25.38;48.48
3844;BME280;1937;51.444;6.484;2023-07-16T12:53:20;69670.16;;;25.18;48.77
3844;BME280;1937;51.444;6.484;2023-07-16T12:55:48;69751.09;;;25.40;48.88
3844;BME280;1937;51.444;6.484;2023-07-16T12:58:15;69775.38;;;25.56;48.16
3844;BME280;1937;51.444;6.484;2023-07-16T13:00:42;69830.91;;;25.81;48.35
3844;BME280;1937;51.444;6.484;2023-07-16T13:03:08;69819.03;;;25.71;47.36
3844;BME280;1937;51.444;6.484;2023-07-16T13:05:37;69801.22;;;25.76;47.64
3844;BME280;1937;51.444;6.484;2023-07-16T13:08:03;69903.16;;;26.04;46.81
3844;BME280;1937;51.444;6.484;2023-07-16T13:10:29;69982.97;;;26.36;46.51
3844;BME280;1937;51.444;6.484;2023-07-16T13:12:58;70212.38;;;27.03;45.40
3844;BME280;1937;51.444;6.484;2023-07-16T13:15:24;70263.56;;;27.06;45.42
3844;BME280;1937;51.444;6.484;2023-07-16T13:17:51;70118.38;;;26.88;45.20
3844;BME280;1937;51.444;6.484;2023-07-16T13:20:18;70076.34;;;26.55;46.98